メインページ
METAR-TAF:

METAR-TAF

空港 :

ナナイモ空港

ナナイモ, ブリティッシュコロンビア州, カナダ

緯度: 49-03N, 経度: 123-52W, 海抜: 28m

現時点の気象観測

当レポートは1時間19分前の05:00(UTC)に作成
北西の風 5kt
気温 10°C
湿度 93%
気圧 1021 hPa
視程: 24.1km
高度700ftの雲はほとんどない
高度1200ftの雲は散在している
高度3500ftの曇り
浅い霧, 近辺で霧

METAR: CYCD 160500Z 31005KT 15SM MIFG VCFG FEW007 SCT012 OVC035 10/09 A3015 RMK SF2SC2SC4 LAST STFD OBS/NEXT 161400Z SLP212

時間: 22:19 (06:19 UTC)

予報

当レポートは6時間41分前の23:38(UTC)に作成
予報は16日の 00時(UTC)から 16日の 05時(UTC)まで有効
南/南東の風 8kt
視程: 10km
高度5000ftの雲は散在している
高度10000ftの千切れ雲あり
高度14000ftの千切れ雲あり
16日の 00時(UTC)から 16日の 05時(UTC)まで一時的に
視程: 8.0km
高度2000ftの千切れ雲あり
高度5000ftの千切れ雲あり
弱いにわか雨, 靄

TAF: CYCD 152338Z 1600/1605 16008KT P6SM SCT050 BKN100 BKN140 TEMPO 1600/1605 5SM -SHRA BR BKN020 BKN050 RMK NXT FCST WILL BE ISSUED AT 161545Z

4,000以上の空港の気象観測と天気予報(METAR報とTAF報)

利用可能な観測所は地図上に黄色い丸と赤い丸で示す。

丸の上にカーソルを重ねると観測所名を参照できる。

次にクリックすると気象観測と天気予報を参照できる。

マップの切り替え:黒色「×」印の緑ボタンをクリックして拡大、「-」印の緑ボタンをクリックして縮小、緑色の三角印をクリックして隣りの地図に切り替え


METAR-TAF: